Terminal Aerodrome Forecast
Issued by NWS

Current Version | Previous Version | Text Only | Print | Product List | Glossary On
Versions: 1 2 3 4 5 6 7 8 9 10 11 12 13 14 15 16 17 18 19 20 21 22 23 24 25 26 27 28 29 30 31 32 33 34 35 36 37 38 39 40
000 FTUS41 KBOX 250256 AAC TAFACK TAF AMD KACK 250256Z 2503/2524 24017G25KT P6SM BKN070 WS020/23045KT FM250700 22012G22KT P6SM BKN040 FM251000 26010KT P6SM BKN008 FM251500 31008KT P6SM VCSH OVC020 FM252200 03010KT P6SM VCSH OVC035=

USA.gov is the U.S. government's official web portal to all federal, state and local government web resources and services.